createdAt,value
2023-02-08T00:00:01.132Z,-3.4
2023-02-08T00:01:01.159Z,-3.4
2023-02-08T00:02:01.375Z,-3.4
2023-02-08T00:03:01.431Z,-3.4
2023-02-08T00:04:01.656Z,-3.4
2023-02-08T00:05:04.297Z,-3.3
2023-02-08T00:06:02.040Z,-3.4
2023-02-08T00:07:01.119Z,-3.4
2023-02-08T00:08:01.163Z,-3.4
2023-02-08T00:09:01.149Z,-3.4
2023-02-08T00:10:01.151Z,-3.4
2023-02-08T00:11:01.167Z,-3.4
2023-02-08T00:12:01.279Z,-3.5
2023-02-08T00:13:01.161Z,-3.5
2023-02-08T00:14:01.169Z,-3.5
2023-02-08T00:15:01.418Z,-3.5
2023-02-08T00:16:02.155Z,-3.5
2023-02-08T00:17:02.632Z,-3.5
2023-02-08T00:18:01.873Z,-3.5
2023-02-08T00:19:01.784Z,-3.5
2023-02-08T00:20:01.126Z,-3.5
2023-02-08T00:21:01.116Z,-3.5
2023-02-08T00:22:01.116Z,-3.5
2023-02-08T00:23:01.165Z,-3.4
2023-02-08T00:24:01.527Z,-3.4
2023-02-08T00:25:01.138Z,-3.4
2023-02-08T00:26:01.154Z,-3.4
2023-02-08T00:27:01.148Z,-3.4
2023-02-08T00:28:03.862Z,-3.4
2023-02-08T00:29:01.163Z,-3.4
2023-02-08T00:30:01.066Z,-3.4
2023-02-08T00:31:01.508Z,-3.4
2023-02-08T00:32:01.441Z,-3.4
2023-02-08T00:33:02.617Z,-3.4
2023-02-08T00:34:01.099Z,-3.4
2023-02-08T00:35:01.202Z,-3.4
2023-02-08T00:36:01.060Z,-3.4
2023-02-08T00:37:01.102Z,-3.4
2023-02-08T00:38:01.277Z,-3.4
2023-02-08T00:39:01.137Z,-3.4
2023-02-08T00:40:01.128Z,-3.4
2023-02-08T00:41:02.286Z,-3.5
2023-02-08T00:42:02.345Z,-3.4
2023-02-08T00:43:01.158Z,-3.4
2023-02-08T00:44:01.151Z,-3.5
2023-02-08T00:45:01.162Z,-3.5
2023-02-08T00:46:01.075Z,-3.5
2023-02-08T00:47:01.219Z,-3.5
2023-02-08T00:48:01.688Z,-3.5
2023-02-08T00:49:01.258Z,-3.5
2023-02-08T00:50:01.796Z,-3.5
2023-02-08T00:51:02.067Z,-3.5
2023-02-08T00:52:01.098Z,-3.5
2023-02-08T00:53:01.109Z,-3.5
2023-02-08T00:54:01.137Z,-3.5
2023-02-08T00:55:01.140Z,-3.5
2023-02-08T00:56:01.194Z,-3.5
2023-02-08T00:57:01.203Z,-3.6
2023-02-08T00:58:01.129Z,-3.6
2023-02-08T00:59:01.158Z,-3.6
2023-02-08T01:00:01.133Z,-3.6
2023-02-08T01:01:01.272Z,-3.6
2023-02-08T01:02:01.228Z,-3.6
2023-02-08T01:03:01.058Z,-3.6
2023-02-08T01:04:01.072Z,-3.6
2023-02-08T01:05:01.042Z,-3.6
2023-02-08T01:06:00.899Z,-3.6
2023-02-08T01:07:01.537Z,-3.6
2023-02-08T01:08:01.204Z,-3.6
2023-02-08T01:09:01.114Z,-3.6
2023-02-08T01:10:01.118Z,-3.6
2023-02-08T01:11:04.108Z,-3.7
2023-02-08T01:12:00.495Z,-3.7
2023-02-08T01:13:00.086Z,-3.7
2023-02-08T01:13:59.898Z,-3.7
2023-02-08T01:14:59.737Z,-3.7
2023-02-08T01:16:06.699Z,-3.7
2023-02-08T01:17:01.378Z,-3.8
2023-02-08T01:18:01.184Z,-3.8
2023-02-08T01:19:01.172Z,-3.8
2023-02-08T01:20:01.194Z,-3.9
2023-02-08T01:21:09.852Z,-3.9
2023-02-08T01:22:01.274Z,-3.9
2023-02-08T01:23:01.965Z,-4
2023-02-08T01:24:01.951Z,-4
2023-02-08T01:25:01.585Z,-4
2023-02-08T01:26:12.062Z,-4
2023-02-08T01:27:04.071Z,-4
2023-02-08T01:28:01.193Z,-4
2023-02-08T01:29:01.069Z,-4
2023-02-08T01:30:01.124Z,-4
2023-02-08T01:31:13.775Z,-4
2023-02-08T01:32:01.200Z,-4
2023-02-08T01:33:01.266Z,-4
2023-02-08T01:34:01.308Z,-4
2023-02-08T01:35:01.483Z,-4
2023-02-08T01:36:16.797Z,-4
2023-02-08T01:37:01.081Z,-4
2023-02-08T01:38:01.071Z,-4
2023-02-08T01:39:01.214Z,-4.1
2023-02-08T01:40:01.087Z,-4.1
2023-02-08T01:41:01.106Z,-4.1
2023-02-08T01:42:01.110Z,-4.2
2023-02-08T01:43:01.095Z,-4.2
2023-02-08T01:44:01.121Z,-4.3
2023-02-08T01:45:01.585Z,-4.3
2023-02-08T01:46:01.256Z,-4.3
2023-02-08T01:47:01.125Z,-4.3
2023-02-08T01:48:01.322Z,-4.3
2023-02-08T01:49:01.774Z,-4.3
2023-02-08T01:50:01.453Z,-4.3
2023-02-08T01:51:01.049Z,-4.3
2023-02-08T01:52:01.082Z,-4.3
2023-02-08T01:53:01.080Z,-4.3
2023-02-08T01:54:01.063Z,-4.4
2023-02-08T01:55:00.765Z,-4.3
2023-02-08T01:56:00.484Z,-4.4
2023-02-08T01:57:00.168Z,-4.3
2023-02-08T01:57:59.855Z,-4.3
2023-02-08T01:59:01.781Z,-4.3
2023-02-08T02:00:01.846Z,-4.3
2023-02-08T02:01:01.445Z,-4.3
2023-02-08T02:02:02.162Z,-4.3
2023-02-08T02:03:01.513Z,-4.3
2023-02-08T02:04:01.126Z,-4.3
2023-02-08T02:05:01.154Z,-4.3
2023-02-08T02:06:01.185Z,-4.3
2023-02-08T02:07:01.168Z,-4.3
2023-02-08T02:08:01.157Z,-4.3
2023-02-08T02:09:01.070Z,-4.3
2023-02-08T02:10:01.088Z,-4.3
2023-02-08T02:11:01.076Z,-4.3
2023-02-08T02:12:01.523Z,-4.4
2023-02-08T02:13:01.211Z,-4.4
2023-02-08T02:14:02.151Z,-4.5
2023-02-08T02:15:02.136Z,-4.5
2023-02-08T02:16:01.100Z,-4.5
2023-02-08T02:17:01.118Z,-4.5
2023-02-08T02:18:01.254Z,-4.5
2023-02-08T02:19:02.564Z,-4.5
2023-02-08T02:20:01.372Z,-4.5
2023-02-08T02:21:01.805Z,-4.4
2023-02-08T02:21:59.710Z,-4.4
2023-02-08T02:23:01.466Z,-4.4
2023-02-08T02:24:01.169Z,-4.4
2023-02-08T02:25:01.472Z,-4.4
2023-02-08T02:26:01.812Z,-4.4
2023-02-08T02:27:01.115Z,-4.4
2023-02-08T02:28:01.124Z,-4.3
2023-02-08T02:29:02.501Z,-4.3
2023-02-08T02:30:03.970Z,-4.3
2023-02-08T02:31:02.038Z,-4.3
2023-02-08T02:32:01.105Z,-4.3
2023-02-08T02:33:01.119Z,-4.3
2023-02-08T02:34:01.148Z,-4.3
2023-02-08T02:35:01.211Z,-4.3
2023-02-08T02:36:00.909Z,-4.3
2023-02-08T02:37:00.622Z,-4.4
2023-02-08T02:38:00.441Z,-4.4
2023-02-08T02:39:00.111Z,-4.4
2023-02-08T02:39:59.803Z,-4.4
2023-02-08T02:41:01.571Z,-4.4
2023-02-08T02:42:01.049Z,-4.3
2023-02-08T02:43:01.134Z,-4.3
2023-02-08T02:44:01.074Z,-4.3
2023-02-08T02:45:01.793Z,-4.3
2023-02-08T02:46:01.367Z,-4.3
2023-02-08T02:47:01.320Z,-4.3
2023-02-08T02:48:01.585Z,-4.3
2023-02-08T02:49:01.576Z,-4.3
2023-02-08T02:50:01.194Z,-4.3
2023-02-08T02:51:03.944Z,-4.3
2023-02-08T02:52:01.128Z,-4.3
2023-02-08T02:53:01.189Z,-4.3
2023-02-08T02:54:01.058Z,-4.3
2023-02-08T02:55:01.209Z,-4.3
2023-02-08T02:56:01.253Z,-4.3
2023-02-08T02:57:01.470Z,-4.3
2023-02-08T02:58:01.553Z,-4.3
2023-02-08T02:59:01.237Z,-4.3
2023-02-08T03:00:01.249Z,-4.3
2023-02-08T03:01:01.307Z,-4.4
2023-02-08T03:02:04.256Z,-4.4
2023-02-08T03:03:01.133Z,-4.4
2023-02-08T03:04:01.200Z,-4.4
2023-02-08T03:05:01.329Z,-4.4
2023-02-08T03:06:01.559Z,-4.5
2023-02-08T03:07:07.713Z,-4.5
2023-02-08T03:08:01.211Z,-4.5
2023-02-08T03:09:01.338Z,-4.5
2023-02-08T03:10:01.173Z,-4.5
2023-02-08T03:11:01.165Z,-4.5
2023-02-08T03:12:11.314Z,-4.5
2023-02-08T03:13:01.272Z,-4.5
2023-02-08T03:14:01.158Z,-4.5
2023-02-08T03:15:01.174Z,-4.5
2023-02-08T03:16:03.935Z,-4.5
2023-02-08T03:17:14.358Z,-4.5
2023-02-08T03:18:01.277Z,-4.5
2023-02-08T03:19:00.890Z,-4.5
2023-02-08T03:20:01.156Z,-4.5
2023-02-08T03:21:01.318Z,-4.5
2023-02-08T03:22:16.731Z,-4.5
2023-02-08T03:23:01.188Z,-4.5
2023-02-08T03:24:01.125Z,-4.5
2023-02-08T03:25:01.115Z,-4.5
2023-02-08T03:26:01.125Z,-4.5
2023-02-08T03:27:01.134Z,-4.4
2023-02-08T03:28:01.183Z,-4.5
2023-02-08T03:29:01.134Z,-4.5
2023-02-08T03:30:01.659Z,-4.5
2023-02-08T03:31:01.553Z,-4.5
2023-02-08T03:32:01.102Z,-4.6
2023-02-08T03:33:01.087Z,-4.6
2023-02-08T03:34:01.082Z,-4.6
2023-02-08T03:35:01.898Z,-4.7
2023-02-08T03:36:01.341Z,-4.7
2023-02-08T03:37:01.352Z,-4.8
2023-02-08T03:38:01.107Z,-4.7
2023-02-08T03:39:01.154Z,-4.8
2023-02-08T03:40:01.436Z,-4.7
2023-02-08T03:41:01.140Z,-4.7
2023-02-08T03:42:01.355Z,-4.7
2023-02-08T03:43:01.140Z,-4.7
2023-02-08T03:44:00.908Z,-4.6
2023-02-08T03:45:01.568Z,-4.6
2023-02-08T03:46:02.089Z,-4.6
2023-02-08T03:47:01.068Z,-4.6
2023-02-08T03:48:01.065Z,-4.6
2023-02-08T03:49:01.068Z,-4.7
2023-02-08T03:50:01.105Z,-4.8
2023-02-08T03:51:01.257Z,-4.8
2023-02-08T03:52:01.892Z,-4.8
2023-02-08T03:53:01.898Z,-4.8
2023-02-08T03:54:02.363Z,-4.9
2023-02-08T03:55:01.147Z,-4.9
2023-02-08T03:56:01.109Z,-4.9
2023-02-08T03:57:01.125Z,-5
2023-02-08T03:58:01.136Z,-5
2023-02-08T03:59:01.139Z,-5
2023-02-08T04:00:02.187Z,-5
2023-02-08T04:01:01.157Z,-5
2023-02-08T04:02:00.887Z,-5
2023-02-08T04:03:00.640Z,-5
2023-02-08T04:04:00.355Z,-5
2023-02-08T04:05:00.397Z,-5
2023-02-08T04:06:00.396Z,-5
2023-02-08T04:07:00.431Z,-5
2023-02-08T04:08:00.047Z,-5
2023-02-08T04:08:59.750Z,-5
2023-02-08T04:10:01.791Z,-5
2023-02-08T04:11:01.398Z,-5
2023-02-08T04:12:01.120Z,-5
2023-02-08T04:13:01.323Z,-5
2023-02-08T04:14:02.421Z,-5
2023-02-08T04:15:02.150Z,-5
2023-02-08T04:16:01.681Z,-5
2023-02-08T04:17:01.084Z,-5
2023-02-08T04:18:01.140Z,-5
2023-02-08T04:19:01.376Z,-5
2023-02-08T04:20:01.155Z,-5
2023-02-08T04:21:01.069Z,-5
2023-02-08T04:22:01.163Z,-5
2023-02-08T04:23:01.069Z,-5
2023-02-08T04:24:01.144Z,-5
2023-02-08T04:25:01.319Z,-5
2023-02-08T04:26:01.146Z,-5.1
2023-02-08T04:27:01.052Z,-5.1
2023-02-08T04:28:01.168Z,-5.1
2023-02-08T04:29:01.002Z,-5.1
2023-02-08T04:30:01.123Z,-5.1
2023-02-08T04:31:01.371Z,-5.1
2023-02-08T04:32:01.222Z,-5.1
2023-02-08T04:33:01.939Z,-5.1
2023-02-08T04:34:01.555Z,-5.1
2023-02-08T04:35:01.152Z,-5.1
2023-02-08T04:36:00.913Z,-5.2
2023-02-08T04:37:01.175Z,-5.2
2023-02-08T04:38:04.122Z,-5.3
2023-02-08T04:39:01.075Z,-5.3
2023-02-08T04:40:01.604Z,-5.3
2023-02-08T04:41:01.091Z,-5.3
2023-02-08T04:42:03.195Z,-5.3
2023-02-08T04:43:04.271Z,-5.3
2023-02-08T04:44:02.035Z,-5.3
2023-02-08T04:45:01.928Z,-5.3
2023-02-08T04:46:01.445Z,-5.3
2023-02-08T04:47:01.560Z,-5.3
2023-02-08T04:48:07.676Z,-5.3
2023-02-08T04:49:01.168Z,-5.3
2023-02-08T04:50:01.199Z,-5.2
2023-02-08T04:51:01.136Z,-5.3
2023-02-08T04:52:01.171Z,-5.3
2023-02-08T04:53:10.040Z,-5.3
2023-02-08T04:54:01.566Z,-5.3
2023-02-08T04:55:01.554Z,-5.3
2023-02-08T04:56:01.663Z,-5.3
2023-02-08T04:57:01.214Z,-5.3
2023-02-08T04:58:13.490Z,-5.3
2023-02-08T04:59:01.901Z,-5.3
2023-02-08T05:00:01.270Z,-5.3
2023-02-08T05:01:01.108Z,-5.4
2023-02-08T05:02:01.120Z,-5.4
2023-02-08T05:03:16.210Z,-5.4
2023-02-08T05:04:01.440Z,-5.3
2023-02-08T05:05:04.574Z,-5.3
2023-02-08T05:06:01.177Z,-5.4
2023-02-08T05:07:01.786Z,-5.4
2023-02-08T05:08:01.853Z,-5.4
2023-02-08T05:09:02.483Z,-5.4
2023-02-08T05:10:01.445Z,-5.4
2023-02-08T05:11:01.084Z,-5.4
2023-02-08T05:12:01.078Z,-5.5
2023-02-08T05:13:01.075Z,-5.5
2023-02-08T05:14:01.528Z,-5.5
2023-02-08T05:15:01.198Z,-5.5
2023-02-08T05:16:01.599Z,-5.6
2023-02-08T05:17:01.082Z,-5.6
2023-02-08T05:18:01.106Z,-5.6
2023-02-08T05:19:01.063Z,-5.6
2023-02-08T05:20:01.134Z,-5.6
2023-02-08T05:21:01.141Z,-5.6
2023-02-08T05:22:01.167Z,-5.6
2023-02-08T05:23:01.429Z,-5.6
2023-02-08T05:24:01.267Z,-5.6
2023-02-08T05:25:02.411Z,-5.6
2023-02-08T05:26:01.169Z,-5.6
2023-02-08T05:27:01.172Z,-5.6
2023-02-08T05:28:01.152Z,-5.6
2023-02-08T05:29:01.256Z,-5.6
2023-02-08T05:30:01.087Z,-5.6
2023-02-08T05:31:01.382Z,-5.6
2023-02-08T05:32:01.224Z,-5.6
2023-02-08T05:33:01.728Z,-5.6
2023-02-08T05:34:08.462Z,-5.6
2023-02-08T05:35:01.778Z,-5.6
2023-02-08T05:36:01.154Z,-5.6
2023-02-08T05:37:01.183Z,-5.6
2023-02-08T05:38:01.453Z,-5.6
2023-02-08T05:39:01.139Z,-5.6
2023-02-08T05:40:01.447Z,-5.6
2023-02-08T05:41:01.705Z,-5.6
2023-02-08T05:42:02.625Z,-5.6
2023-02-08T05:43:01.474Z,-5.6
2023-02-08T05:44:01.169Z,-5.6
2023-02-08T05:45:01.875Z,-5.6
2023-02-08T05:46:01.105Z,-5.6
2023-02-08T05:47:00.501Z,-5.5
2023-02-08T05:48:00.161Z,-5.5
2023-02-08T05:49:00.180Z,-5.6
2023-02-08T05:49:59.993Z,-5.6
2023-02-08T05:50:59.688Z,-5.5
2023-02-08T05:52:01.412Z,-5.5
2023-02-08T05:53:01.111Z,-5.5
2023-02-08T05:54:01.132Z,-5.6
2023-02-08T05:55:01.816Z,-5.5
2023-02-08T05:56:01.147Z,-5.5
2023-02-08T05:57:01.244Z,-5.5
2023-02-08T05:58:02.401Z,-5.5
2023-02-08T05:59:01.395Z,-5.5
2023-02-08T06:00:02.308Z,-5.5
2023-02-08T06:01:01.163Z,-5.5
2023-02-08T06:02:01.102Z,-5.5
2023-02-08T06:03:01.858Z,-5.5
2023-02-08T06:04:03.989Z,-5.5
2023-02-08T06:05:01.047Z,-5.5
2023-02-08T06:06:00.677Z,-5.5
2023-02-08T06:07:00.238Z,-5.5
2023-02-08T06:07:59.825Z,-5.5
2023-02-08T06:09:01.520Z,-5.5
2023-02-08T06:10:01.175Z,-5.5
2023-02-08T06:11:01.067Z,-5.5
2023-02-08T06:12:01.124Z,-5.5
2023-02-08T06:13:01.139Z,-5.5
2023-02-08T06:14:01.153Z,-5.5
2023-02-08T06:15:01.794Z,-5.5
2023-02-08T06:16:01.178Z,-5.5
2023-02-08T06:17:01.176Z,-5.6
2023-02-08T06:18:01.160Z,-5.5
2023-02-08T06:19:01.067Z,-5.5
2023-02-08T06:20:01.523Z,-5.5
2023-02-08T06:21:01.941Z,-5.5
2023-02-08T06:22:02.233Z,-5.5
2023-02-08T06:23:01.163Z,-5.5
2023-02-08T06:24:03.411Z,-5.5
2023-02-08T06:25:02.440Z,-5.6
2023-02-08T06:26:01.112Z,-5.5
2023-02-08T06:27:01.112Z,-5.6
2023-02-08T06:28:01.182Z,-5.5
2023-02-08T06:29:06.245Z,-5.5
2023-02-08T06:30:00.666Z,-5.5
2023-02-08T06:31:00.479Z,-5.5
2023-02-08T06:32:00.270Z,-5.6
2023-02-08T06:33:00.019Z,-5.5
2023-02-08T06:34:08.280Z,-5.5
2023-02-08T06:35:04.311Z,-5.5
2023-02-08T06:36:01.959Z,-5.5
2023-02-08T06:37:01.117Z,-5.5
2023-02-08T06:38:01.888Z,-5.5
2023-02-08T06:39:10.270Z,-5.5
2023-02-08T06:40:00.701Z,-5.5
2023-02-08T06:41:00.557Z,-5.5
2023-02-08T06:42:00.270Z,-5.5
2023-02-08T06:42:59.976Z,-5.5
2023-02-08T06:44:12.896Z,-5.5
2023-02-08T06:45:01.283Z,-5.5
2023-02-08T06:46:01.225Z,-5.5
2023-02-08T06:47:01.135Z,-5.5
2023-02-08T06:48:01.137Z,-5.5
2023-02-08T06:49:17.434Z,-5.4
2023-02-08T06:50:01.278Z,-5.5
2023-02-08T06:51:01.189Z,-5.5
2023-02-08T06:52:01.190Z,-5.5
2023-02-08T06:53:01.907Z,-5.5
2023-02-08T06:54:01.092Z,-5.4
2023-02-08T06:55:01.090Z,-5.4
2023-02-08T06:56:01.111Z,-5.4
2023-02-08T06:57:01.139Z,-5.4
2023-02-08T06:58:01.373Z,-5.4
2023-02-08T06:59:01.501Z,-5.4
2023-02-08T07:00:02.274Z,-5.3
2023-02-08T07:01:01.348Z,-5.4
2023-02-08T07:02:01.428Z,-5.3
2023-02-08T07:03:01.013Z,-5.3
2023-02-08T07:04:01.240Z,-5.3
2023-02-08T07:05:01.440Z,-5.3
2023-02-08T07:06:05.716Z,-5.3
2023-02-08T07:07:01.159Z,-5.3
2023-02-08T07:08:01.062Z,-5.3
2023-02-08T07:09:00.748Z,-5.3
2023-02-08T07:10:00.453Z,-5.3
2023-02-08T07:11:00.104Z,-5.3
2023-02-08T07:12:00.061Z,-5.3
2023-02-08T07:12:59.740Z,-5.3
2023-02-08T07:14:02.101Z,-5.2
2023-02-08T07:15:01.804Z,-5.2
2023-02-08T07:16:01.121Z,-5.1
2023-02-08T07:17:01.198Z,-5.1
2023-02-08T07:18:01.122Z,-5.1
2023-02-08T07:19:01.155Z,-5
2023-02-08T07:20:01.257Z,-5
2023-02-08T07:21:01.849Z,-5
2023-02-08T07:22:02.212Z,-5
2023-02-08T07:23:01.195Z,-5
2023-02-08T07:24:00.849Z,-5
2023-02-08T07:25:01.052Z,-5
2023-02-08T07:26:00.768Z,-5
2023-02-08T07:27:00.476Z,-5
2023-02-08T07:28:00.208Z,-4.9
2023-02-08T07:28:59.872Z,-4.9
2023-02-08T07:30:00.058Z,-4.9
2023-02-08T07:30:59.846Z,-4.9
2023-02-08T07:31:59.614Z,-4.8
2023-02-08T07:33:01.830Z,-4.8
2023-02-08T07:34:01.130Z,-4.8
2023-02-08T07:35:01.128Z,-4.8
2023-02-08T07:36:01.140Z,-4.8
2023-02-08T07:37:01.199Z,-4.8
2023-02-08T07:38:01.189Z,-4.8
2023-02-08T07:39:01.172Z,-4.8
2023-02-08T07:40:03.175Z,-4.8
2023-02-08T07:41:05.088Z,-4.7
2023-02-08T07:42:03.858Z,-4.7
2023-02-08T07:43:01.907Z,-4.7
2023-02-08T07:44:01.758Z,-4.7
2023-02-08T07:45:01.077Z,-4.7
2023-02-08T07:46:01.110Z,-4.6
2023-02-08T07:47:01.114Z,-4.6
2023-02-08T07:48:01.101Z,-4.6
2023-02-08T07:49:00.812Z,-4.6
2023-02-08T07:50:01.243Z,-4.6
2023-02-08T07:51:01.493Z,-4.5
2023-02-08T07:52:01.137Z,-4.5
2023-02-08T07:53:01.222Z,-4.5
2023-02-08T07:54:01.145Z,-4.5
2023-02-08T07:55:01.432Z,-4.5
2023-02-08T07:56:01.541Z,-4.5
2023-02-08T07:57:03.810Z,-4.4
2023-02-08T07:58:01.329Z,-4.3
2023-02-08T07:59:01.149Z,-4.3
2023-02-08T08:00:01.070Z,-4.3
2023-02-08T08:01:07.020Z,-4.3
2023-02-08T08:02:02.197Z,-4.2
2023-02-08T08:03:01.286Z,-4.2
2023-02-08T08:04:01.338Z,-4.1
2023-02-08T08:05:01.163Z,-4.1
2023-02-08T08:06:01.316Z,-4.1
2023-02-08T08:07:02.300Z,-4.1
2023-02-08T08:08:01.309Z,-4
2023-02-08T08:09:02.072Z,-4
2023-02-08T08:10:04.236Z,-4
2023-02-08T08:11:03.666Z,-4
2023-02-08T08:12:01.613Z,-4
2023-02-08T08:13:01.436Z,-3.9
2023-02-08T08:14:01.447Z,-3.8
2023-02-08T08:15:07.011Z,-3.8
2023-02-08T08:16:01.124Z,-3.8
2023-02-08T08:17:01.088Z,-3.8
2023-02-08T08:18:01.107Z,-3.7
2023-02-08T08:19:01.105Z,-3.7
2023-02-08T08:20:10.016Z,-3.6
2023-02-08T08:21:01.147Z,-3.6
2023-02-08T08:22:01.494Z,-3.6
2023-02-08T08:23:02.592Z,-3.6
2023-02-08T08:24:01.119Z,-3.5
2023-02-08T08:25:14.062Z,-3.5
2023-02-08T08:26:01.590Z,-3.5
2023-02-08T08:27:01.525Z,-3.5
2023-02-08T08:28:01.239Z,-3.4
2023-02-08T08:29:01.272Z,-3.4
2023-02-08T08:30:16.637Z,-3.3
2023-02-08T08:31:01.242Z,-3.3
2023-02-08T08:32:02.077Z,-3.3
2023-02-08T08:33:01.113Z,-3.3
2023-02-08T08:34:01.090Z,-3.2
2023-02-08T08:35:01.086Z,-3.2
2023-02-08T08:36:01.487Z,-3.1
2023-02-08T08:37:01.392Z,-3.1
2023-02-08T08:38:01.504Z,-3.1
2023-02-08T08:39:01.643Z,-3
2023-02-08T08:40:01.255Z,-3
2023-02-08T08:41:01.207Z,-3
2023-02-08T08:42:01.130Z,-3
2023-02-08T08:43:01.147Z,-2.9
2023-02-08T08:44:01.164Z,-2.9
2023-02-08T08:45:01.195Z,-2.9
2023-02-08T08:46:00.644Z,-2.8
2023-02-08T08:47:00.265Z,-2.8
2023-02-08T08:47:59.924Z,-2.8
2023-02-08T08:48:59.525Z,-2.7
2023-02-08T08:50:01.103Z,-2.7
2023-02-08T08:51:01.062Z,-2.7
2023-02-08T08:52:01.140Z,-2.6
2023-02-08T08:53:01.102Z,-2.6
2023-02-08T08:54:04.124Z,-2.6
2023-02-08T08:55:01.062Z,-2.6
2023-02-08T08:56:02.078Z,-2.6
2023-02-08T08:57:01.123Z,-2.5
2023-02-08T08:58:01.202Z,-2.5
2023-02-08T08:59:01.131Z,-2.5
2023-02-08T09:00:01.151Z,-2.5
2023-02-08T09:01:01.175Z,-2.5
2023-02-08T09:02:01.332Z,-2.4
2023-02-08T09:03:02.629Z,-2.4
2023-02-08T09:04:02.498Z,-2.3
2023-02-08T09:05:01.228Z,-2.3
2023-02-08T09:06:01.074Z,-2.3
2023-02-08T09:07:01.089Z,-2.3
2023-02-08T09:08:01.084Z,-2.2
2023-02-08T09:09:01.094Z,-2.2
2023-02-08T09:10:01.102Z,-2.2
2023-02-08T09:11:00.787Z,-2.1
2023-02-08T09:12:01.120Z,-2.1
2023-02-08T09:13:01.360Z,-2.1
2023-02-08T09:14:04.111Z,-2
2023-02-08T09:15:01.396Z,-2
2023-02-08T09:16:01.699Z,-2
2023-02-08T09:17:01.144Z,-2
2023-02-08T09:18:01.143Z,-2
2023-02-08T09:19:01.176Z,-2
2023-02-08T09:20:02.770Z,-1.9
2023-02-08T09:21:01.480Z,-1.9
2023-02-08T09:22:02.117Z,-1.9
2023-02-08T09:23:01.201Z,-1.8
2023-02-08T09:24:01.075Z,-1.8
2023-02-08T09:25:01.083Z,-1.8
2023-02-08T09:26:01.102Z,-1.8
2023-02-08T09:27:01.548Z,-1.8
2023-02-08T09:28:01.279Z,-1.8
2023-02-08T09:29:01.110Z,-1.7
2023-02-08T09:30:01.220Z,-1.7
2023-02-08T09:31:01.015Z,-1.6
2023-02-08T09:32:01.278Z,-1.6
2023-02-08T09:33:02.092Z,-1.6
2023-02-08T09:34:01.120Z,-1.6
2023-02-08T09:35:01.261Z,-1.6
2023-02-08T09:36:01.047Z,-1.6
2023-02-08T09:37:01.183Z,-1.6
2023-02-08T09:38:01.159Z,-1.6
2023-02-08T09:39:01.786Z,-1.6
2023-02-08T09:40:01.251Z,-1.5
2023-02-08T09:41:01.173Z,-1.5
2023-02-08T09:42:01.092Z,-1.5
2023-02-08T09:43:01.097Z,-1.5
2023-02-08T09:44:01.119Z,-1.5
2023-02-08T09:45:01.317Z,-1.5
2023-02-08T09:46:01.562Z,-1.5
2023-02-08T09:47:01.369Z,-1.5
2023-02-08T09:48:01.353Z,-1.4
2023-02-08T09:49:01.338Z,-1.4
2023-02-08T09:50:01.387Z,-1.4
2023-02-08T09:51:01.869Z,-1.4
2023-02-08T09:52:01.158Z,-1.3
2023-02-08T09:53:01.249Z,-1.3
2023-02-08T09:54:01.189Z,-1.3
2023-02-08T09:55:01.069Z,-1.3
2023-02-08T09:56:05.614Z,-1.3
2023-02-08T09:57:01.479Z,-1.3
2023-02-08T09:58:01.227Z,-1.3
2023-02-08T09:59:04.035Z,-1.3
2023-02-08T10:00:01.123Z,-1.3
2023-02-08T10:01:07.960Z,-1.2
2023-02-08T10:02:01.635Z,-1.2
2023-02-08T10:03:00.822Z,-1.2
2023-02-08T10:04:00.576Z,-1.2
2023-02-08T10:05:00.240Z,-1.1
2023-02-08T10:06:10.570Z,-1.1
2023-02-08T10:07:01.571Z,-1.1
2023-02-08T10:08:01.568Z,-1.1
2023-02-08T10:09:02.166Z,-1.1
2023-02-08T10:10:01.182Z,-1.1
2023-02-08T10:11:12.533Z,-1
2023-02-08T10:12:01.438Z,-1
2023-02-08T10:13:01.118Z,-1
2023-02-08T10:14:02.345Z,-1
2023-02-08T10:15:01.097Z,-1
2023-02-08T10:16:15.709Z,-0.9
2023-02-08T10:17:02.225Z,-0.9
2023-02-08T10:18:01.976Z,-0.8
2023-02-08T10:19:02.921Z,-0.9
2023-02-08T10:20:01.135Z,-0.8
2023-02-08T10:21:01.152Z,-0.8
2023-02-08T10:22:01.232Z,-0.8
2023-02-08T10:23:01.246Z,-0.8
2023-02-08T10:24:01.949Z,-0.8
2023-02-08T10:25:01.306Z,-0.8
2023-02-08T10:26:01.164Z,-0.8
2023-02-08T10:27:01.191Z,-0.8
2023-02-08T10:28:01.594Z,-0.7
2023-02-08T10:29:01.200Z,-0.7
2023-02-08T10:30:01.196Z,-0.7
2023-02-08T10:31:01.092Z,-0.6
2023-02-08T10:32:01.143Z,-0.6
2023-02-08T10:33:01.115Z,-0.6
2023-02-08T10:34:01.499Z,-0.6
2023-02-08T10:35:01.112Z,-0.6
2023-02-08T10:36:01.120Z,-0.6
2023-02-08T10:37:01.140Z,-0.6
2023-02-08T10:38:01.137Z,-0.6
2023-02-08T10:39:01.151Z,-0.5
2023-02-08T10:40:01.167Z,-0.5
2023-02-08T10:41:01.140Z,-0.5
2023-02-08T10:42:01.341Z,-0.5
2023-02-08T10:43:01.548Z,-0.5
2023-02-08T10:44:01.411Z,-0.5
2023-02-08T10:45:04.084Z,-0.5
2023-02-08T10:46:02.848Z,-0.5
2023-02-08T10:47:01.182Z,-0.4
2023-02-08T10:48:01.086Z,-0.5
2023-02-08T10:49:01.134Z,-0.4
2023-02-08T10:50:01.145Z,-0.4
2023-02-08T10:51:00.909Z,-0.4
2023-02-08T10:52:01.521Z,-0.4
2023-02-08T10:53:01.123Z,-0.3
2023-02-08T10:54:01.121Z,-0.3
2023-02-08T10:55:01.163Z,-0.3
2023-02-08T10:56:01.127Z,-0.3
2023-02-08T10:57:02.007Z,-0.3
2023-02-08T10:58:01.140Z,-0.2
2023-02-08T10:59:01.130Z,-0.2
2023-02-08T11:00:01.514Z,-0.2
2023-02-08T11:01:02.185Z,-0.2
2023-02-08T11:02:01.076Z,-0.2
2023-02-08T11:03:01.179Z,-0.1
2023-02-08T11:04:01.131Z,-0.1
2023-02-08T11:05:01.076Z,-0.1
2023-02-08T11:06:01.217Z,-0.1
2023-02-08T11:07:01.096Z,-0.1
2023-02-08T11:08:01.125Z,-0.1
2023-02-08T11:09:01.132Z,-0.1
2023-02-08T11:10:01.113Z,-0.1
2023-02-08T11:11:00.754Z,-0.1
2023-02-08T11:12:01.166Z,-0.1
2023-02-08T11:13:01.151Z,0
2023-02-08T11:14:01.179Z,0
2023-02-08T11:15:01.368Z,0
2023-02-08T11:16:01.336Z,0
2023-02-08T11:17:01.171Z,0
2023-02-08T11:18:01.175Z,0
2023-02-08T11:19:01.088Z,0
2023-02-08T11:20:01.146Z,0
2023-02-08T11:21:01.063Z,0.1
2023-02-08T11:22:01.210Z,0.1
2023-02-08T11:23:01.166Z,0.1
2023-02-08T11:24:01.111Z,0.1
2023-02-08T11:25:01.137Z,0.1
2023-02-08T11:26:01.301Z,0.1
2023-02-08T11:27:01.051Z,0.1
2023-02-08T11:28:01.227Z,0.2
2023-02-08T11:29:01.205Z,0.2
2023-02-08T11:30:01.254Z,0.2
2023-02-08T11:31:01.301Z,0.2
2023-02-08T11:32:01.623Z,0.2
2023-02-08T11:33:01.160Z,0.2
2023-02-08T11:34:01.262Z,0.3
2023-02-08T11:35:01.463Z,0.3
2023-02-08T11:36:02.140Z,0.3
2023-02-08T11:37:02.921Z,0.3
2023-02-08T11:38:01.512Z,0.3
2023-02-08T11:39:00.573Z,0.4
2023-02-08T11:40:00.463Z,0.4
2023-02-08T11:41:00.207Z,0.4
2023-02-08T11:42:05.029Z,0.4
2023-02-08T11:43:01.237Z,0.5
2023-02-08T11:44:01.129Z,0.5
2023-02-08T11:45:01.127Z,0.5
2023-02-08T11:46:01.136Z,0.5
2023-02-08T11:47:08.846Z,0.5
2023-02-08T11:48:01.154Z,0.5
2023-02-08T11:49:01.153Z,0.5
2023-02-08T11:50:01.060Z,0.6
2023-02-08T11:51:00.762Z,0.6
2023-02-08T11:52:10.834Z,0.6
2023-02-08T11:53:02.144Z,0.6
2023-02-08T11:54:01.098Z,0.6
2023-02-08T11:55:01.295Z,0.6
2023-02-08T11:56:01.093Z,0.6
2023-02-08T11:57:14.621Z,0.6
2023-02-08T11:58:01.832Z,0.6
2023-02-08T11:59:01.836Z,0.6
2023-02-08T12:00:01.546Z,0.6
2023-02-08T12:01:01.384Z,0.6
2023-02-08T12:02:16.794Z,0.6
2023-02-08T12:03:01.142Z,0.7
2023-02-08T12:04:01.207Z,0.6
2023-02-08T12:05:01.063Z,0.7
2023-02-08T12:06:01.060Z,0.7
2023-02-08T12:07:01.064Z,0.7
2023-02-08T12:08:01.145Z,0.8
2023-02-08T12:09:01.447Z,0.8
2023-02-08T12:10:01.170Z,0.8
2023-02-08T12:11:01.804Z,0.9
2023-02-08T12:12:01.071Z,0.9
2023-02-08T12:13:01.095Z,0.9
2023-02-08T12:14:01.159Z,0.9
2023-02-08T12:15:01.169Z,0.9
2023-02-08T12:16:01.640Z,1
2023-02-08T12:17:01.607Z,1
2023-02-08T12:18:01.369Z,1
2023-02-08T12:19:01.170Z,1
2023-02-08T12:20:02.212Z,1
2023-02-08T12:21:01.153Z,1
2023-02-08T12:22:01.062Z,1
2023-02-08T12:23:01.067Z,1
2023-02-08T12:24:01.180Z,1.1
2023-02-08T12:25:01.148Z,1.1
2023-02-08T12:26:01.076Z,1.1
2023-02-08T12:27:01.083Z,1.1
2023-02-08T12:28:01.520Z,1.1
2023-02-08T12:29:01.480Z,1.1
2023-02-08T12:30:01.487Z,1.1
2023-02-08T12:31:01.268Z,1.2
2023-02-08T12:32:01.358Z,1.1
2023-02-08T12:33:01.270Z,1.1
2023-02-08T12:34:01.263Z,1.1
2023-02-08T12:35:01.153Z,1.1
2023-02-08T12:36:05.158Z,1.1
2023-02-08T12:37:01.301Z,1.1
2023-02-08T12:38:01.642Z,1.1
2023-02-08T12:39:17.743Z,1.1
2023-02-08T12:40:01.332Z,1.1
2023-02-08T12:41:01.979Z,1.1
2023-02-08T12:42:01.051Z,1.1
2023-02-08T12:43:01.096Z,1.1
2023-02-08T12:44:01.161Z,1.2
2023-02-08T12:45:01.094Z,1.2
2023-02-08T12:46:01.175Z,1.2
2023-02-08T12:47:01.869Z,1.3
2023-02-08T12:48:04.598Z,1.3
2023-02-08T12:49:01.546Z,1.3
2023-02-08T12:50:02.205Z,1.3
2023-02-08T12:51:01.179Z,1.3
2023-02-08T12:52:01.181Z,1.4
2023-02-08T12:53:01.050Z,1.4
2023-02-08T12:54:01.217Z,1.4
2023-02-08T12:55:01.175Z,1.4
2023-02-08T12:56:01.163Z,1.4
2023-02-08T12:57:02.877Z,1.5
2023-02-08T12:58:01.565Z,1.4
2023-02-08T12:59:11.697Z,1.4
2023-02-08T13:00:01.148Z,1.5
2023-02-08T13:01:01.089Z,1.4
2023-02-08T13:02:01.158Z,1.5
2023-02-08T13:03:01.107Z,1.5
2023-02-08T13:04:01.137Z,1.5
2023-02-08T13:05:01.157Z,1.5
2023-02-08T13:06:02.897Z,1.5
2023-02-08T13:07:01.349Z,1.5
2023-02-08T13:08:01.126Z,1.5
2023-02-08T13:09:01.091Z,1.5
2023-02-08T13:10:01.498Z,1.5
2023-02-08T13:11:14.101Z,1.5
2023-02-08T13:12:02.078Z,1.5
2023-02-08T13:13:01.053Z,1.5
2023-02-08T13:14:01.078Z,1.5
2023-02-08T13:15:02.910Z,1.5
2023-02-08T13:16:01.439Z,1.5
2023-02-08T13:17:01.665Z,1.5
2023-02-08T13:18:02.157Z,1.5
2023-02-08T13:19:01.820Z,1.5
2023-02-08T13:20:01.215Z,1.5
2023-02-08T13:21:01.923Z,1.5
2023-02-08T13:22:01.096Z,1.5
2023-02-08T13:23:01.114Z,1.5
2023-02-08T13:24:01.152Z,1.5
2023-02-08T13:25:07.423Z,1.5
2023-02-08T13:26:01.422Z,1.5
2023-02-08T13:27:01.521Z,1.5
2023-02-08T13:28:02.743Z,1.5
2023-02-08T13:29:02.028Z,1.6